Time;durP1;ratioP1;P1;durP2;ratioP2;P2;SDS_P1;SDS_P2;PMS_P1;PMS_P2;Temp;Humidity;BMP_temperature;BMP_pressure;BME280_temperature;BME280_humidity;BME280_pressure;Samples;Min_cycle;Max_cycle;Signal;HPM_P1;HPM_P2
2021/08/15 00:00:20;;;;;;;;;;;;;;;25.06;58.58;95821.81;1041762;28;1348;-70
2021/08/15 00:00:50;;;;;;;;;;;;;;;25.05;58.60;95814.97;1045010;28;1146;-70
2021/08/15 00:01:21;;;;;;;;;;;;;;;25.05;58.84;95817.59;1042678;28;1098;-69
2021/08/15 00:01:51;;;;;;;;;;;;;;;25.05;58.81;95825.56;1047529;28;1900;-69
2021/08/15 00:02:21;;;;;;;;;;;;;;;25.05;58.70;95822.91;1049013;28;1189;-69
2021/08/15 00:02:52;;;;;;;;;;;;;;;25.06;58.85;95821.81;1045692;28;1103;-69
2021/08/15 00:03:22;;;;;;;;;;;;;;;25.05;59.09;95825.56;1053829;28;841;-70
2021/08/15 00:03:52;;;;;;;;;;;;;;;25.04;58.93;95816.03;1051248;28;2670;-69
2021/08/15 00:04:22;;;;;;;;;;;;;;;25.04;58.72;95819.47;1043236;28;2406;-69
2021/08/15 00:04:53;;;;;;;;;;;;;;;25.05;58.86;95822.91;1042400;28;1119;-69
2021/08/15 00:05:23;;;;;;;;;;;;;;;25.05;58.82;95820.25;1049694;28;832;-69
2021/08/15 00:05:53;;;;;;;;;;;;;;;25.04;58.84;95814.16;1045208;28;1178;-69
2021/08/15 00:06:24;;;;;;;;;;;;;;;25.03;58.85;95812.59;1044699;28;1935;-69
2021/08/15 00:06:54;;;;;;;;;;;;;;;25.04;59.13;95821.31;1049343;28;1016;-69
2021/08/15 00:07:24;;;;;;;;;;;;;;;25.03;58.76;95817.91;1048772;28;1942;-70
2021/08/15 00:07:55;;;;;;;;;;;;;;;25.04;58.86;95818.69;1049444;28;1114;-69
2021/08/15 00:08:25;;;;;;;;;;;;;;;25.03;59.02;95812.59;1049447;28;899;-69
2021/08/15 00:08:55;;;;;;;;;;;;;;;25.03;58.88;95819.78;1049337;28;1220;-70
2021/08/15 00:09:25;;;;;;;;;;;;;;;25.02;59.07;95816.34;1042944;28;1186;-69
2021/08/15 00:09:56;;;;;;;;;;;;;;;25.03;59.04;95817.13;1046338;28;2781;-69
2021/08/15 00:10:26;;;;;;;;;;;;;;;25.03;59.18;95819.78;1048922;28;1050;-69
2021/08/15 00:10:57;;;;;;;;;;;;;;;25.03;59.08;95817.13;1046928;28;1103;-69
2021/08/15 00:11:27;;;;;;;;;;;;;;;25.02;59.26;95815.53;1049879;28;1165;-69
2021/08/15 00:11:57;;;;;;;;;;;;;;;25.02;58.88;95816.34;1049877;28;1071;-68
2021/08/15 00:12:27;;;;;;;;;;;;;;;25.03;58.94;95812.59;1049134;28;1252;-69
2021/08/15 00:12:58;;;;;;;;;;;;;;;25.07;58.87;95814.66;1047266;28;2265;-69
2021/08/15 00:13:28;;;;;;;;;;;;;;;25.06;58.79;95816.50;1045910;28;773;-69
2021/08/15 00:13:59;;;;;;;;;;;;;;;25.08;58.85;95813.56;1048583;28;1173;-70
2021/08/15 00:14:29;;;;;;;;;;;;;;;25.07;58.73;95812.00;1049683;28;1216;-69
2021/08/15 00:15:00;;;;;;;;;;;;;;;25.07;58.73;95812.78;1047293;28;2220;-70
2021/08/15 00:15:30;;;;;;;;;;;;;;;25.08;58.84;95814.34;1045253;28;1206;-69
2021/08/15 00:16:00;;;;;;;;;;;;;;;25.09;58.72;95815.91;1045424;28;1146;-70
2021/08/15 00:16:32;;;;;;;;;;;;;;;25.08;58.63;95818.88;1041212;28;1404;-70
2021/08/15 00:17:02;;;;;;;;;;;;;;;25.06;58.67;95811.19;1046475;28;1213;-68
2021/08/15 00:17:33;;;;;;;;;;;;;;;25.06;58.66;95813.09;1045029;28;1548;-70
2021/08/15 00:18:03;;;;;;;;;;;;;;;25.04;58.78;95811.50;1045581;28;1166;-69
2021/08/15 00:18:36;;;;;;;;;;;;;;;25.04;59.03;95810.72;1048405;28;1253;-69
2021/08/15 00:19:07;;;;;;;;;;;;;;;25.03;59.03;95811.81;1042190;28;1134;-69
2021/08/15 00:19:37;;;;;;;;;;;;;;;25.02;59.11;95811.03;1045540;28;769;-69
2021/08/15 00:20:08;;;;;;;;;;;;;;;25.02;58.89;95810.22;1043547;28;2271;-69
2021/08/15 00:20:38;;;;;;;;;;;;;;;25.01;58.87;95809.47;1045349;28;1006;-69
2021/08/15 00:21:08;;;;;;;;;;;;;;;25.02;59.09;95810.22;1048435;28;1299;-69
2021/08/15 00:21:39;;;;;;;;;;;;;;;25.03;58.95;95806.50;1049412;28;1221;-69
2021/08/15 00:22:10;;;;;;;;;;;;;;;25.04;58.69;95813.38;1049291;28;1138;-69
2021/08/15 00:22:40;;;;;;;;;;;;;;;25.03;58.94;95806.50;1049612;28;1194;-69
2021/08/15 00:23:10;;;;;;;;;;;;;;;25.04;58.82;95810.72;1052366;28;1676;-69
2021/08/15 00:23:40;;;;;;;;;;;;;;;25.03;58.84;95803.88;1049136;28;1133;-69
2021/08/15 00:24:11;;;;;;;;;;;;;;;25.03;58.81;95803.88;1049444;28;1166;-69
2021/08/15 00:24:41;;;;;;;;;;;;;;;25.02;58.99;95811.03;1045337;28;1170;-69
2021/08/15 00:25:12;;;;;;;;;;;;;;;25.02;59.00;95804.94;1042265;28;2298;-69
2021/08/15 00:25:42;;;;;;;;;;;;;;;24.99;59.17;95806.34;1044811;28;1069;-69
2021/08/15 00:26:13;;;;;;;;;;;;;;;25.00;59.04;95810.53;1049483;28;1193;-69
2021/08/15 00:26:43;;;;;;;;;;;;;;;25.00;59.08;95807.09;1049536;28;1173;-69
2021/08/15 00:27:13;;;;;;;;;;;;;;;25.01;58.88;95808.69;1049118;28;1268;-69
2021/08/15 00:27:44;;;;;;;;;;;;;;;25.01;58.94;95808.69;1049758;28;1101;-69
2021/08/15 00:28:14;;;;;;;;;;;;;;;25.01;58.91;95814.00;1049814;28;1351;-71
2021/08/15 00:28:45;;;;;;;;;;;;;;;25.00;58.93;95807.09;1049702;28;1331;-69
2021/08/15 00:29:15;;;;;;;;;;;;;;;25.00;58.81;95812.41;1049483;28;839;-69
2021/08/15 00:29:45;;;;;;;;;;;;;;;25.00;58.72;95813.19;1049212;28;1977;-70
2021/08/15 00:30:16;;;;;;;;;;;;;;;25.00;58.82;95809.75;1048436;28;2290;-69
2021/08/15 00:30:46;;;;;;;;;;;;;;;25.00;59.06;95807.09;1049235;28;1142;-69
2021/08/15 00:31:16;;;;;;;;;;;;;;;25.00;58.92;95807.09;1049488;28;1165;-70
2021/08/15 00:31:46;;;;;;;;;;;;;;;24.99;58.79;95806.34;1048421;28;2681;-70
2021/08/15 00:32:17;;;;;;;;;;;;;;;25.01;58.92;95811.34;1048086;28;2586;-69
2021/08/15 00:32:47;;;;;;;;;;;;;;;25.00;58.74;95807.09;1047336;28;1927;-70
2021/08/15 00:33:17;;;;;;;;;;;;;;;25.01;58.95;95809.47;1049414;28;1308;-70
2021/08/15 00:33:47;;;;;;;;;;;;;;;25.01;58.70;95811.34;1049242;28;1172;-69
2021/08/15 00:34:18;;;;;;;;;;;;;;;25.02;58.84;95810.22;1049569;28;1037;-70
2021/08/15 00:34:48;;;;;;;;;;;;;;;25.02;58.94;95815.53;1049674;28;1256;-69
2021/08/15 00:35:18;;;;;;;;;;;;;;;25.02;58.91;95810.22;1048378;28;2586;-69
2021/08/15 00:35:48;;;;;;;;;;;;;;;25.03;58.76;95809.97;1049466;28;1106;-70
2021/08/15 00:36:19;;;;;;;;;;;;;;;25.04;58.88;95813.38;1049855;28;1042;-69
2021/08/15 00:36:49;;;;;;;;;;;;;;;25.03;58.72;95817.91;1049607;28;1170;-69
2021/08/15 00:37:19;;;;;;;;;;;;;;;25.04;58.75;95811.50;1049273;28;1241;-69
2021/08/15 00:37:50;;;;;;;;;;;;;;;25.04;58.55;95808.06;1049046;28;1963;-69
2021/08/15 00:38:20;;;;;;;;;;;;;;;25.05;58.70;95814.97;1049847;28;1229;-69
2021/08/15 00:38:50;;;;;;;;;;;;;;;25.04;58.80;95810.72;1052473;28;1192;-69
2021/08/15 00:39:21;;;;;;;;;;;;;;;25.05;58.65;95812.31;1049686;28;818;-70
2021/08/15 00:39:51;;;;;;;;;;;;;;;25.03;58.90;95809.16;1049475;28;1184;-69
2021/08/15 00:40:21;;;;;;;;;;;;;;;25.03;58.81;95801.22;1048413;28;2412;-69
2021/08/15 00:40:51;;;;;;;;;;;;;;;25.03;58.81;95806.50;1048825;28;1103;-69
2021/08/15 00:41:23;;;;;;;;;;;;;;;25.02;58.77;95804.94;1049592;28;819;-68
2021/08/15 00:41:53;;;;;;;;;;;;;;;25.00;58.99;95807.91;1043934;28;1718;-69
2021/08/15 00:42:24;;;;;;;;;;;;;;;24.99;58.83;95803.69;1044654;28;807;-69
2021/08/15 00:42:54;;;;;;;;;;;;;;;24.99;59.06;95805.53;1044105;28;1022;-69
2021/08/15 00:43:26;;;;;;;;;;;;;;;25.00;58.75;95801.78;1045354;28;1161;-69
2021/08/15 00:43:56;;;;;;;;;;;;;;;24.99;58.98;95805.53;1045038;28;1404;-70
2021/08/15 00:44:27;;;;;;;;;;;;;;;25.00;58.97;95804.44;1041472;28;1435;-69
2021/08/15 00:44:57;;;;;;;;;;;;;;;25.00;58.83;95804.44;1045151;28;1185;-69
2021/08/15 00:45:28;;;;;;;;;;;;;;;25.00;58.91;95801.78;1045667;28;2641;-69
2021/08/15 00:45:58;;;;;;;;;;;;;;;25.01;58.91;95803.38;1047259;28;1226;-69
2021/08/15 00:46:29;;;;;;;;;;;;;;;25.01;58.96;95798.06;1041075;28;1135;-70
2021/08/15 00:47:00;;;;;;;;;;;;;;;25.00;58.75;95799.94;1036916;28;1397;-70
2021/08/15 00:47:30;;;;;;;;;;;;;;;25.00;58.88;95802.59;1032589;28;1010;-69
2021/08/15 00:48:18;;;;;;;;;;;;;;;25.00;59.11;95801.78;1037208;28;1131;-69
2021/08/15 00:48:50;;;;;;;;;;;;;;;24.99;59.00;95802.91;1050717;28;1390;-70
2021/08/15 00:49:20;;;;;;;;;;;;;;;24.98;59.09;95803.97;1049504;28;799;-70
2021/08/15 00:49:50;;;;;;;;;;;;;;;24.97;58.92;95800.56;1049245;28;1961;-70
2021/08/15 00:50:21;;;;;;;;;;;;;;;24.97;58.98;95802.41;1043883;28;2333;-70
2021/08/15 00:50:51;;;;;;;;;;;;;;;24.96;59.06;95800.81;1044455;28;1829;-71
2021/08/15 00:51:21;;;;;;;;;;;;;;;24.95;59.13;95800.06;1045099;28;2315;-69
2021/08/15 00:51:52;;;;;;;;;;;;;;;24.93;59.07;95804.88;1048528;28;1996;-69
2021/08/15 00:52:22;;;;;;;;;;;;;;;24.93;59.17;95796.13;1049631;28;783;-70
2021/08/15 00:52:52;;;;;;;;;;;;;;;24.93;59.03;95804.09;1049544;28;1109;-69
2021/08/15 00:53:22;;;;;;;;;;;;;;;24.92;59.25;95800.66;1049242;28;1550;-69
2021/08/15 00:53:53;;;;;;;;;;;;;;;24.92;59.39;95799.88;1049362;28;1151;-70
2021/08/15 00:54:23;;;;;;;;;;;;;;;24.91;59.15;95796.44;1043819;28;2101;-70
2021/08/15 00:54:57;;;;;;;;;;;;;;;24.90;59.28;95792.22;1045882;28;1067;-70
2021/08/15 00:55:27;;;;;;;;;;;;;;;24.91;59.31;95799.09;1045338;28;2660;-69
2021/08/15 00:55:58;;;;;;;;;;;;;;;24.91;59.16;95795.66;1047068;28;1166;-69
2021/08/15 00:56:28;;;;;;;;;;;;;;;24.92;59.08;95794.56;1045219;28;823;-69
2021/08/15 00:56:59;;;;;;;;;;;;;;;24.91;59.23;95793.78;1042864;28;1472;-69
2021/08/15 00:57:33;;;;;;;;;;;;;;;24.91;59.13;95793.78;1041145;28;987;-70
2021/08/15 00:58:04;;;;;;;;;;;;;;;24.92;59.19;95791.91;1038849;28;1339;-69
2021/08/15 00:58:37;;;;;;;;;;;;;;;24.92;59.04;95794.56;1036233;28;1148;-69
2021/08/15 00:59:07;;;;;;;;;;;;;;;24.92;59.13;95795.34;1036160;28;1710;-67
2021/08/15 00:59:38;;;;;;;;;;;;;;;24.91;59.13;95793.00;1035489;28;1935;-69
2021/08/15 01:00:09;;;;;;;;;;;;;;;24.92;59.29;95792.69;1039307;28;2333;-69
2021/08/15 01:00:39;;;;;;;;;;;;;;;24.93;59.38;95796.94;1041390;28;815;-70
2021/08/15 01:01:09;;;;;;;;;;;;;;;24.92;59.26;95795.34;1044725;28;1192;-69
2021/08/15 01:01:40;;;;;;;;;;;;;;;24.92;59.18;95794.56;1048489;28;2315;-70
2021/08/15 01:02:10;;;;;;;;;;;;;;;24.91;59.09;95793.00;1044807;28;1382;-70
2021/08/15 01:02:44;;;;;;;;;;;;;;;24.91;59.10;95793.00;1041320;28;831;-70
2021/08/15 01:03:14;;;;;;;;;;;;;;;24.91;59.16;95793.00;1045327;28;1115;-69
2021/08/15 01:03:45;;;;;;;;;;;;;;;24.90;59.17;95794.88;1048730;28;2653;-69
2021/08/15 01:04:15;;;;;;;;;;;;;;;24.89;59.32;95795.16;1039495;28;2181;-69
2021/08/15 01:04:45;;;;;;;;;;;;;;;24.89;59.12;95795.16;1041095;28;1147;-70
2021/08/15 01:05:18;;;;;;;;;;;;;;;24.87;59.50;95797.34;1043972;28;2482;-70
2021/08/15 01:05:48;;;;;;;;;;;;;;;24.85;59.51;95791.56;1041987;28;1108;-70
2021/08/15 01:06:19;;;;;;;;;;;;;;;24.84;59.38;95787.31;1049843;28;796;-70
2021/08/15 01:06:49;;;;;;;;;;;;;;;24.85;59.54;95791.56;1049352;28;1212;-70
2021/08/15 01:07:20;;;;;;;;;;;;;;;24.84;59.54;95792.63;1045106;28;807;-70
2021/08/15 01:07:50;;;;;;;;;;;;;;;24.83;59.66;95791.84;1045520;28;1154;-69
2021/08/15 01:08:20;;;;;;;;;;;;;;;24.82;59.58;95790.28;1040006;28;1918;-70
2021/08/15 01:08:51;;;;;;;;;;;;;;;24.83;59.51;95793.72;1037461;28;1395;-70
2021/08/15 01:09:23;;;;;;;;;;;;;;;24.81;59.56;95788.69;1032691;28;1520;-70
2021/08/15 01:09:54;;;;;;;;;;;;;;;24.81;59.56;95786.03;1034874;28;1966;-70
2021/08/15 01:10:24;;;;;;;;;;;;;;;24.82;59.53;95786.84;1036385;28;2408;-70
2021/08/15 01:10:54;;;;;;;;;;;;;;;24.82;59.68;95789.50;1040697;28;1173;-70
2021/08/15 01:11:25;;;;;;;;;;;;;;;24.82;59.77;95789.50;1037131;28;1413;-70
2021/08/15 01:11:55;;;;;;;;;;;;;;;24.81;59.79;95791.34;1032710;28;1544;-69
2021/08/15 01:12:27;;;;;;;;;;;;;;;24.82;59.72;95784.19;1036411;28;1031;-70
2021/08/15 01:12:57;;;;;;;;;;;;;;;24.82;59.59;95784.97;1032986;28;1128;-70
2021/08/15 01:13:29;;;;;;;;;;;;;;;24.83;59.61;95785.75;1033403;28;1236;-70
2021/08/15 01:14:01;;;;;;;;;;;;;;;24.84;59.63;95792.63;1041452;28;1119;-69
2021/08/15 01:14:31;;;;;;;;;;;;;;;24.83;59.73;95785.75;1045960;28;836;-69
2021/08/15 01:15:03;;;;;;;;;;;;;;;24.83;59.51;95783.88;1044843;28;1143;-70
2021/08/15 01:15:42;;;;;;;;;;;;;;;24.83;59.74;95783.13;1045099;28;1071;-70
2021/08/15 01:16:14;;;;;;;;;;;;;;;24.83;59.61;95785.75;1040984;28;1470;-70
2021/08/15 01:16:48;;;;;;;;;;;;;;;24.82;59.63;95784.19;1038148;28;1826;-69
2021/08/15 01:17:20;;;;;;;;;;;;;;;24.81;59.72;95788.69;1041117;28;1306;-70
2021/08/15 01:17:50;;;;;;;;;;;;;;;24.80;59.63;95787.16;1044334;28;1174;-70
2021/08/15 01:18:21;;;;;;;;;;;;;;;24.79;59.65;95784.81;1034775;28;1432;-70
2021/08/15 01:18:52;;;;;;;;;;;;;;;24.76;59.70;95778.22;1033961;28;1292;-70
2021/08/15 01:19:27;;;;;;;;;;;;;;;24.76;59.85;95782.72;1036703;28;1367;-71
2021/08/15 01:19:57;;;;;;;;;;;;;;;24.75;60.02;95783.84;1033522;28;1240;-70
2021/08/15 01:20:28;;;;;;;;;;;;;;;24.75;59.85;95781.94;1036947;28;2340;-70
2021/08/15 01:21:01;;;;;;;;;;;;;;;24.75;59.90;95789.13;1041744;28;1108;-70
2021/08/15 01:21:31;;;;;;;;;;;;;;;24.75;60.04;95783.84;1045495;28;1159;-70
2021/08/15 01:22:02;;;;;;;;;;;;;;;24.75;60.17;95784.59;1049502;28;1279;-70
2021/08/15 01:22:37;;;;;;;;;;;;;;;24.75;59.89;95783.84;1049247;28;1052;-70
2021/08/15 01:23:08;;;;;;;;;;;;;;;24.75;59.86;95783.84;1047766;28;1657;-70
2021/08/15 01:23:38;;;;;;;;;;;;;;;24.74;59.84;95783.03;1049222;28;1150;-70
2021/08/15 01:24:09;;;;;;;;;;;;;;;24.74;59.97;95782.25;1049299;28;1264;-70
2021/08/15 01:24:39;;;;;;;;;;;;;;;24.75;60.09;95778.53;1049563;28;1220;-71
2021/08/15 01:25:10;;;;;;;;;;;;;;;24.76;59.94;95780.09;1048940;28;2242;-70
2021/08/15 01:25:40;;;;;;;;;;;;;;;24.77;59.74;95781.66;1048224;28;2154;-70
2021/08/15 01:26:14;;;;;;;;;;;;;;;24.77;60.02;95774.47;1049653;28;1225;-70
2021/08/15 01:26:44;;;;;;;;;;;;;;;24.76;60.12;95780.88;1049596;28;1193;-70
2021/08/15 01:27:15;;;;;;;;;;;;;;;24.77;60.01;95776.34;1048801;28;1185;-70
2021/08/15 01:27:45;;;;;;;;;;;;;;;24.78;59.83;95783.22;1048913;28;1110;-70
2021/08/15 01:28:16;;;;;;;;;;;;;;;24.76;59.74;95775.56;1049254;28;902;-69
2021/08/15 01:28:47;;;;;;;;;;;;;;;24.76;59.93;95780.09;1044234;28;2327;-71
2021/08/15 01:29:21;;;;;;;;;;;;;;;24.75;59.92;95778.53;1044654;28;2156;-70
2021/08/15 01:29:51;;;;;;;;;;;;;;;24.76;60.10;95780.09;1044728;28;1906;-69
2021/08/15 01:30:22;;;;;;;;;;;;;;;24.74;59.83;95782.25;1040360;28;2379;-69
2021/08/15 01:30:52;;;;;;;;;;;;;;;24.73;60.23;95778.81;1044493;28;2330;-70
2021/08/15 01:31:23;;;;;;;;;;;;;;;24.73;60.02;95772.72;1045360;28;824;-69
2021/08/15 01:31:53;;;;;;;;;;;;;;;24.73;60.20;95780.66;1044341;28;1774;-69
2021/08/15 01:32:23;;;;;;;;;;;;;;;24.71;60.34;95777.53;1052913;28;728;-69
2021/08/15 01:32:54;;;;;;;;;;;;;;;24.70;60.20;95770.66;1050731;28;2363;-70
2021/08/15 01:33:25;;;;;;;;;;;;;;;24.68;60.24;95778.13;1049101;28;1209;-69
2021/08/15 01:33:55;;;;;;;;;;;;;;;24.68;60.30;95778.13;1049002;28;1309;-70
2021/08/15 01:34:25;;;;;;;;;;;;;;;24.68;60.23;95783.41;1045201;28;1330;-69
2021/08/15 01:34:55;;;;;;;;;;;;;;;24.67;60.20;95781.84;1044871;28;1190;-70
2021/08/15 01:35:26;;;;;;;;;;;;;;;24.65;60.07;95779.47;1044034;28;2683;-70
2021/08/15 01:35:57;;;;;;;;;;;;;;;24.65;60.53;95778.69;1044866;28;1095;-69
2021/08/15 01:36:27;;;;;;;;;;;;;;;24.63;60.38;95776.34;1049378;28;815;-70
2021/08/15 01:36:57;;;;;;;;;;;;;;;24.62;60.36;95776.66;1049110;28;1201;-71
2021/08/15 01:37:27;;;;;;;;;;;;;;;24.61;60.39;95775.06;1048504;28;1824;-70
2021/08/15 01:37:58;;;;;;;;;;;;;;;24.60;60.28;95770.88;1047083;28;1554;-71
2021/08/15 01:38:29;;;;;;;;;;;;;;;24.59;60.42;95774.59;1049589;28;1213;-70
2021/08/15 01:38:59;;;;;;;;;;;;;;;24.59;60.60;95777.25;1051209;28;1367;-70
2021/08/15 01:39:29;;;;;;;;;;;;;;;24.55;60.50;95769.09;1049401;28;692;-70
2021/08/15 01:40:02;;;;;;;;;;;;;;;24.57;60.49;95776.75;1049250;28;1220;-71
2021/08/15 01:40:33;;;;;;;;;;;;;;;24.56;60.57;95775.19;1047653;28;2366;-70
2021/08/15 01:41:03;;;;;;;;;;;;;;;24.54;60.87;95774.72;1047987;28;1698;-69
2021/08/15 01:41:34;;;;;;;;;;;;;;;24.53;60.81;95775.78;1045569;28;1860;-70
2021/08/15 01:42:04;;;;;;;;;;;;;;;24.52;61.06;95780.31;1047552;28;1151;-69
2021/08/15 01:42:34;;;;;;;;;;;;;;;24.51;60.63;95780.59;1049315;28;791;-70
2021/08/15 01:43:04;;;;;;;;;;;;;;;24.49;61.16;95770.31;1049462;28;1204;-70
2021/08/15 01:43:54;;;;;;;;;;;;;;;24.50;60.83;95777.19;1049483;28;1145;-70
2021/08/15 01:44:25;;;;;;;;;;;;;;;24.50;61.02;95781.69;1045420;28;1033;-70
2021/08/15 01:44:55;;;;;;;;;;;;;;;24.48;61.03;95779.34;1048095;28;1185;-69
2021/08/15 01:45:25;;;;;;;;;;;;;;;24.47;61.19;95783.06;1048207;28;2332;-69
2021/08/15 01:45:55;;;;;;;;;;;;;;;24.47;61.10;95771.69;1049439;28;1082;-70
2021/08/15 01:46:26;;;;;;;;;;;;;;;24.47;61.30;95776.97;1049431;28;761;-70
2021/08/15 01:46:57;;;;;;;;;;;;;;;24.45;61.10;95774.63;1049518;28;1217;-70
2021/08/15 01:47:27;;;;;;;;;;;;;;;24.46;61.20;95775.41;1048847;28;1256;-70
2021/08/15 01:47:57;;;;;;;;;;;;;;;24.46;61.25;95770.13;1049501;28;1138;-70
2021/08/15 01:48:28;;;;;;;;;;;;;;;24.44;61.07;95782.88;1049411;28;803;-70
2021/08/15 01:48:58;;;;;;;;;;;;;;;24.44;61.35;95781.00;1049264;28;1294;-70
2021/08/15 01:49:28;;;;;;;;;;;;;;;24.43;61.48;95773.34;1049424;28;1046;-69
2021/08/15 01:49:59;;;;;;;;;;;;;;;24.43;61.12;95770.69;1048366;28;1969;-70
2021/08/15 01:50:29;;;;;;;;;;;;;;;24.44;61.34;95774.94;1043705;28;2290;-71
2021/08/15 01:50:59;;;;;;;;;;;;;;;24.42;61.61;95763.84;1040877;28;1281;-70
2021/08/15 01:51:31;;;;;;;;;;;;;;;24.40;61.52;95773.97;1036797;28;1252;-71
2021/08/15 01:52:01;;;;;;;;;;;;;;;24.40;61.63;95769.41;1041193;28;1358;-71
2021/08/15 01:52:31;;;;;;;;;;;;;;;24.39;61.43;95770.53;1048761;28;859;-70
2021/08/15 01:53:02;;;;;;;;;;;;;;;24.40;61.57;95773.97;1042691;28;1229;-69
2021/08/15 01:53:32;;;;;;;;;;;;;;;24.39;61.48;95769.72;1040934;28;1280;-69
2021/08/15 01:54:03;;;;;;;;;;;;;;;24.37;61.54;95772.69;1043434;28;1190;-70
2021/08/15 01:54:33;;;;;;;;;;;;;;;24.38;61.75;95773.47;1041843;28;2102;-70
2021/08/15 01:55:05;;;;;;;;;;;;;;;24.36;61.88;95762.38;1044766;28;1142;-70
2021/08/15 01:55:36;;;;;;;;;;;;;;;24.36;61.69;95770.34;1046217;28;2292;-70
2021/08/15 01:56:06;;;;;;;;;;;;;;;24.34;61.64;95765.31;1048913;28;1231;-69
2021/08/15 01:56:37;;;;;;;;;;;;;;;24.34;61.98;95767.19;1049070;28;808;-70
2021/08/15 01:57:07;;;;;;;;;;;;;;;24.34;61.86;95767.19;1047174;28;1202;-70
2021/08/15 01:57:37;;;;;;;;;;;;;;;24.34;61.77;95767.19;1045053;28;796;-70
2021/08/15 01:58:08;;;;;;;;;;;;;;;24.32;62.05;95770.13;1045417;28;1718;-70
2021/08/15 01:58:38;;;;;;;;;;;;;;;24.33;61.94;95770.91;1048239;28;1276;-69
2021/08/15 01:59:08;;;;;;;;;;;;;;;24.33;61.99;95770.91;1047751;28;1893;-70
2021/08/15 01:59:39;;;;;;;;;;;;;;;24.31;62.02;95765.91;1045095;28;491;-70
2021/08/15 02:00:09;;;;;;;;;;;;;;;24.29;61.99;95767.28;1040791;28;1167;-70
2021/08/15 02:00:40;;;;;;;;;;;;;;;24.29;61.94;95765.44;1040372;28;2241;-70
2021/08/15 02:01:14;;;;;;;;;;;;;;;24.29;62.03;95773.38;1044901;28;1107;-70
2021/08/15 02:01:44;;;;;;;;;;;;;;;24.29;62.32;95768.09;1049007;28;1341;-70
2021/08/15 02:02:14;;;;;;;;;;;;;;;24.28;62.04;95763.84;1048982;28;1058;-70
2021/08/15 02:02:44;;;;;;;;;;;;;;;24.29;62.03;95772.59;1049075;28;1162;-70
2021/08/15 02:03:15;;;;;;;;;;;;;;;24.28;62.14;95768.38;1048973;28;1206;-70
2021/08/15 02:03:46;;;;;;;;;;;;;;;24.28;62.33;95774.44;1048055;28;2347;-70
2021/08/15 02:04:17;;;;;;;;;;;;;;;24.27;62.25;95767.59;1046864;28;2318;-70
2021/08/15 02:04:47;;;;;;;;;;;;;;;24.28;62.27;95768.38;1045818;28;1056;-70
2021/08/15 02:05:20;;;;;;;;;;;;;;;24.26;62.20;95763.38;1049379;28;823;-70
2021/08/15 02:05:50;;;;;;;;;;;;;;;24.25;62.35;95767.88;1047478;28;2388;-70
2021/08/15 02:06:20;;;;;;;;;;;;;;;24.27;62.06;95764.94;1047442;28;1654;-70
2021/08/15 02:06:51;;;;;;;;;;;;;;;24.27;62.10;95772.09;1046235;28;1150;-69
2021/08/15 02:07:21;;;;;;;;;;;;;;;24.27;62.20;95770.25;1047723;28;1812;-70
2021/08/15 02:07:54;;;;;;;;;;;;;;;24.27;62.42;95766.81;1050008;28;1308;-70
2021/08/15 02:08:25;;;;;;;;;;;;;;;24.25;62.34;95773.16;1053375;28;870;-69
2021/08/15 02:08:55;;;;;;;;;;;;;;;24.25;62.42;95769.75;1048741;28;1170;-70
2021/08/15 02:09:25;;;;;;;;;;;;;;;24.25;62.29;95764.47;1040392;28;1143;-70
2021/08/15 02:09:55;;;;;;;;;;;;;;;24.24;62.43;95766.31;1042281;28;1898;-70
2021/08/15 02:10:26;;;;;;;;;;;;;;;24.24;62.25;95776.91;1043904;28;2794;-71
2021/08/15 02:10:56;;;;;;;;;;;;;;;24.25;62.34;95769.75;1044655;28;1071;-69
2021/08/15 02:11:27;;;;;;;;;;;;;;;24.25;62.20;95769.75;1048994;28;1069;-70
2021/08/15 02:11:57;;;;;;;;;;;;;;;24.27;62.17;95764.16;1049135;28;1242;-69
2021/08/15 02:12:27;;;;;;;;;;;;;;;24.28;62.24;95768.38;1048297;28;1094;-70
2021/08/15 02:12:58;;;;;;;;;;;;;;;24.30;62.30;95776.81;1049426;28;1041;-70
2021/08/15 02:13:28;;;;;;;;;;;;;;;24.30;61.92;95776.81;1049007;28;721;-70
2021/08/15 02:13:59;;;;;;;;;;;;;;;24.33;62.16;95778.88;1048985;28;1166;-70
2021/08/15 02:14:29;;;;;;;;;;;;;;;24.33;62.11;95771.72;1049091;28;1257;-70
2021/08/15 02:14:59;;;;;;;;;;;;;;;24.35;61.72;95774.06;1048494;28;1863;-71
2021/08/15 02:15:29;;;;;;;;;;;;;;;24.35;61.88;95769.53;1047820;28;2393;-70
2021/08/15 02:16:00;;;;;;;;;;;;;;;24.37;61.94;95772.69;1049220;28;1109;-69
2021/08/15 02:16:30;;;;;;;;;;;;;;;24.38;61.80;95773.47;1049480;28;851;-70
2021/08/15 02:17:00;;;;;;;;;;;;;;;24.40;61.85;95784.56;1048944;28;1406;-69
2021/08/15 02:17:30;;;;;;;;;;;;;;;24.40;61.75;95777.38;1046911;28;1654;-69
2021/08/15 02:18:01;;;;;;;;;;;;;;;24.43;61.76;95776.00;1044909;28;1334;-69
2021/08/15 02:18:31;;;;;;;;;;;;;;;24.42;61.63;95775.22;1045003;28;815;-69
2021/08/15 02:19:01;;;;;;;;;;;;;;;24.43;61.65;95781.31;1044529;28;1290;-70
2021/08/15 02:19:33;;;;;;;;;;;;;;;24.44;61.54;95774.94;1044719;28;788;-70
2021/08/15 02:20:04;;;;;;;;;;;;;;;24.44;61.60;95777.59;1048955;28;1162;-70
2021/08/15 02:20:34;;;;;;;;;;;;;;;24.44;61.65;95777.59;1047198;28;2350;-71
2021/08/15 02:21:05;;;;;;;;;;;;;;;24.43;61.69;95776.78;1047794;28;1100;-70
2021/08/15 02:21:35;;;;;;;;;;;;;;;24.42;61.70;95779.75;1048901;28;778;-70
2021/08/15 02:22:05;;;;;;;;;;;;;;;24.41;61.87;95778.97;1048648;28;1150;-70
2021/08/15 02:22:35;;;;;;;;;;;;;;;24.39;61.81;95772.38;1053606;28;842;-69
2021/08/15 02:23:06;;;;;;;;;;;;;;;24.41;61.67;95778.16;1050215;28;1366;-70
2021/08/15 02:23:36;;;;;;;;;;;;;;;24.40;61.75;95779.25;1049017;28;1034;-70
2021/08/15 02:24:06;;;;;;;;;;;;;;;24.38;61.74;95774.22;1044713;28;1363;-70
2021/08/15 02:24:37;;;;;;;;;;;;;;;24.37;61.73;95777.19;1040887;28;1038;-70
2021/08/15 02:25:08;;;;;;;;;;;;;;;24.36;61.82;95778.28;1044987;28;1155;-70
2021/08/15 02:25:38;;;;;;;;;;;;;;;24.36;61.70;95775.63;1042224;28;2228;-70
2021/08/15 02:26:08;;;;;;;;;;;;;;;24.35;61.75;95784.66;1048810;28;1181;-70
2021/08/15 02:26:39;;;;;;;;;;;;;;;24.35;61.56;95779.34;1049497;28;1045;-69
2021/08/15 02:27:09;;;;;;;;;;;;;;;24.36;61.50;95780.94;1048714;28;1208;-69
2021/08/15 02:27:39;;;;;;;;;;;;;;;24.34;61.90;95778.56;1049355;28;1029;-69
2021/08/15 02:28:10;;;;;;;;;;;;;;;24.33;61.83;95782.31;1049188;28;1166;-70
2021/08/15 02:28:40;;;;;;;;;;;;;;;24.32;61.91;95787.91;1049344;28;1304;-70
2021/08/15 02:29:10;;;;;;;;;;;;;;;24.32;61.73;95774.66;1049117;28;1304;-71
2021/08/15 02:29:41;;;;;;;;;;;;;;;24.32;61.91;95785.25;1049001;28;843;-71
2021/08/15 02:30:11;;;;;;;;;;;;;;;24.30;61.64;95782.13;1048734;28;1905;-70
2021/08/15 02:30:42;;;;;;;;;;;;;;;24.29;61.88;95777.88;1046116;28;2290;-70
2021/08/15 02:31:12;;;;;;;;;;;;;;;24.27;61.74;95774.75;1049016;28;1217;-69
2021/08/15 02:31:42;;;;;;;;;;;;;;;24.25;61.98;95769.75;1049040;28;1256;-70
2021/08/15 02:32:13;;;;;;;;;;;;;;;24.25;61.92;95781.13;1048008;28;1142;-70
2021/08/15 02:32:43;;;;;;;;;;;;;;;24.24;61.73;95774.25;1048999;28;778;-70
2021/08/15 02:33:14;;;;;;;;;;;;;;;24.23;62.06;95783.28;1049006;28;1206;-70
2021/08/15 02:33:44;;;;;;;;;;;;;;;24.23;61.98;95783.28;1049238;28;1208;-70
2021/08/15 02:34:14;;;;;;;;;;;;;;;24.22;62.07;95783.59;1047926;28;1574;-70
2021/08/15 02:34:44;;;;;;;;;;;;;;;24.21;62.20;95782.78;1046351;28;2627;-70
2021/08/15 02:35:15;;;;;;;;;;;;;;;24.21;62.10;95780.13;1048948;28;1150;-69
2021/08/15 02:35:45;;;;;;;;;;;;;;;24.22;62.01;95780.94;1043765;28;2763;-70
2021/08/15 02:36:16;;;;;;;;;;;;;;;24.21;62.10;95780.13;1044921;28;780;-70
2021/08/15 02:36:46;;;;;;;;;;;;;;;24.21;62.29;95780.13;1048959;28;1155;-70
2021/08/15 02:37:18;;;;;;;;;;;;;;;24.19;62.13;95784.19;1048679;28;1277;-69
2021/08/15 02:37:49;;;;;;;;;;;;;;;24.19;62.08;95777.00;1046111;28;2025;-70
2021/08/15 02:38:20;;;;;;;;;;;;;;;24.18;62.19;95782.59;1048834;28;780;-70
2021/08/15 02:38:50;;;;;;;;;;;;;;;24.18;62.30;95785.25;1040471;28;1310;-70
2021/08/15 02:39:21;;;;;;;;;;;;;;;24.20;61.89;95785.75;1040687;28;1089;-70
2021/08/15 02:39:51;;;;;;;;;;;;;;;24.19;62.11;95781.53;1040920;28;1202;-70
2021/08/15 02:40:22;;;;;;;;;;;;;;;24.19;62.10;95777.00;1044702;28;1236;-70
2021/08/15 02:40:52;;;;;;;;;;;;;;;24.19;62.12;95774.34;1045947;28;2230;-70
2021/08/15 02:41:22;;;;;;;;;;;;;;;24.19;62.10;95778.88;1049151;28;776;-70
2021/08/15 02:41:52;;;;;;;;;;;;;;;24.19;62.20;95777.00;1048929;28;1162;-70
2021/08/15 02:42:23;;;;;;;;;;;;;;;24.20;62.06;95778.59;1048274;28;1477;-70